createdAt,value
2023-01-09T00:01:38.324Z,43.25
2023-01-09T00:04:08.121Z,45.00
2023-01-09T00:06:36.170Z,43.60
2023-01-09T00:09:05.649Z,41.50
2023-01-09T00:11:34.239Z,40.38
2023-01-09T00:14:02.201Z,59.35
2023-01-09T00:16:30.224Z,97.30
2023-01-09T00:18:58.183Z,58.25
2023-01-09T00:21:26.136Z,56.35
2023-01-09T00:23:55.176Z,61.03
2023-01-09T00:26:24.656Z,51.33
2023-01-09T00:28:54.207Z,39.17
2023-01-09T00:31:22.802Z,46.58
2023-01-09T00:33:56.254Z,71.07
2023-01-09T00:36:24.257Z,44.83
2023-01-09T00:38:52.330Z,41.40
2023-01-09T00:41:23.216Z,52.15
2023-01-09T00:43:55.976Z,40.63
2023-01-09T00:46:30.342Z,42.92
2023-01-09T00:48:58.933Z,34.15
2023-01-09T00:51:27.870Z,36.35
2023-01-09T00:53:56.125Z,56.80
2023-01-09T00:56:25.823Z,44.53
2023-01-09T00:58:55.731Z,38.65
2023-01-09T01:01:23.924Z,39.20
2023-01-09T01:03:51.940Z,37.55
2023-01-09T01:06:39.601Z,72.57
2023-01-09T01:09:07.717Z,75.68
2023-01-09T01:11:36.006Z,42.40
2023-01-09T01:14:05.343Z,61.13
2023-01-09T01:16:33.959Z,41.28
2023-01-09T01:19:01.865Z,37.95
2023-01-09T01:21:29.873Z,34.88
2023-01-09T01:23:57.831Z,59.08
2023-01-09T01:26:25.691Z,47.47
2023-01-09T01:28:53.612Z,44.88
2023-01-09T01:31:22.883Z,45.08
2023-01-09T01:33:50.797Z,36.47
2023-01-09T01:36:18.749Z,63.67
2023-01-09T01:38:47.961Z,33.47
2023-01-09T01:41:29.385Z,41.13
2023-01-09T01:43:58.820Z,47.58
2023-01-09T01:46:29.040Z,51.05
2023-01-09T01:49:01.517Z,44.03
2023-01-09T01:51:34.161Z,62.55
2023-01-09T01:54:07.560Z,45.50
2023-01-09T01:56:39.061Z,42.60
2023-01-09T01:59:10.800Z,65.25
2023-01-09T02:01:44.052Z,49.35
2023-01-09T02:04:12.977Z,40.35
2023-01-09T02:06:42.255Z,36.20
2023-01-09T02:09:10.538Z,40.58
2023-01-09T02:11:38.385Z,42.95
2023-01-09T02:14:06.398Z,35.75
2023-01-09T02:16:48.287Z,40.40
2023-01-09T02:19:39.605Z,38.08
2023-01-09T02:22:15.314Z,42.55
2023-01-09T02:25:09.452Z,42.78
2023-01-09T02:28:11.006Z,55.70
2023-01-09T02:30:46.826Z,39.08
2023-01-09T02:33:40.551Z,44.13
2023-01-09T02:36:28.863Z,39.00
2023-01-09T02:39:07.179Z,42.30
2023-01-09T02:41:41.841Z,46.90
2023-01-09T02:44:17.835Z,37.97
2023-01-09T02:46:47.255Z,38.63
2023-01-09T02:49:17.819Z,34.45
2023-01-09T02:51:53.510Z,44.17
2023-01-09T02:54:36.056Z,36.95
2023-01-09T02:57:23.137Z,39.55
2023-01-09T03:00:04.983Z,39.28
2023-01-09T03:02:46.711Z,38.00
2023-01-09T03:05:22.812Z,40.25
2023-01-09T03:07:59.842Z,45.30
2023-01-09T03:10:33.381Z,41.53
2023-01-09T03:13:03.486Z,38.78
2023-01-09T03:15:35.776Z,38.47
2023-01-09T03:18:06.202Z,60.08
2023-01-09T03:20:34.618Z,38.92
2023-01-09T03:23:03.972Z,32.47
2023-01-09T03:25:32.998Z,55.35
2023-01-09T03:28:03.055Z,36.55
2023-01-09T03:30:32.690Z,49.67
2023-01-09T03:33:01.354Z,28.20
2023-01-09T03:35:30.805Z,31.05
2023-01-09T03:37:59.050Z,39.33
2023-01-09T03:40:27.188Z,41.33
2023-01-09T03:42:55.154Z,44.22
2023-01-09T03:45:23.168Z,33.13
2023-01-09T03:47:52.957Z,49.53
2023-01-09T03:50:21.101Z,29.67
2023-01-09T03:52:50.521Z,27.83
2023-01-09T03:55:18.666Z,32.95
2023-01-09T03:57:46.660Z,32.47
2023-01-09T04:00:15.468Z,26.45
2023-01-09T04:02:43.851Z,25.08
2023-01-09T04:05:11.907Z,29.30
2023-01-09T04:07:39.956Z,27.15
2023-01-09T04:10:11.035Z,33.63
2023-01-09T04:12:39.222Z,29.52
2023-01-09T04:15:08.343Z,25.67
2023-01-09T04:17:36.379Z,24.95
2023-01-09T04:20:05.041Z,28.02
2023-01-09T04:22:32.989Z,32.67
2023-01-09T04:25:00.930Z,32.97
2023-01-09T04:27:30.289Z,49.72
2023-01-09T04:29:58.240Z,33.28
2023-01-09T04:32:27.613Z,42.85
2023-01-09T04:34:55.552Z,44.17
2023-01-09T04:37:24.654Z,31.35
2023-01-09T04:39:54.906Z,26.80
2023-01-09T04:42:22.993Z,26.38
2023-01-09T04:44:54.089Z,24.80
2023-01-09T04:47:22.187Z,28.67
2023-01-09T04:49:50.166Z,25.80
2023-01-09T04:52:18.142Z,23.58
2023-01-09T04:54:46.149Z,29.95
2023-01-09T04:57:14.085Z,26.75
2023-01-09T04:59:42.014Z,33.67
2023-01-09T05:02:12.133Z,29.35
2023-01-09T05:04:40.173Z,24.85
2023-01-09T05:07:08.127Z,32.22
2023-01-09T05:09:36.224Z,25.08
2023-01-09T05:12:04.292Z,26.17
2023-01-09T05:14:32.319Z,28.33
2023-01-09T05:17:00.295Z,27.02
2023-01-09T05:19:29.591Z,26.02
2023-01-09T05:21:57.624Z,33.38
2023-01-09T05:24:25.528Z,28.88
2023-01-09T05:26:53.485Z,31.33
2023-01-09T05:29:21.519Z,37.28
2023-01-09T05:31:49.668Z,32.95
2023-01-09T05:34:17.615Z,40.15
2023-01-09T05:36:47.010Z,45.15
2023-01-09T05:39:15.078Z,33.60
2023-01-09T05:41:43.072Z,40.45
2023-01-09T05:44:10.983Z,32.53
2023-01-09T05:46:38.934Z,37.97
2023-01-09T05:49:06.936Z,26.35
2023-01-09T05:51:35.199Z,32.38
2023-01-09T05:54:05.764Z,35.67
2023-01-09T05:56:33.819Z,29.80
2023-01-09T05:59:01.962Z,30.05
2023-01-09T06:01:29.994Z,34.22
2023-01-09T06:03:57.913Z,30.40
2023-01-09T06:06:26.056Z,47.92
2023-01-09T06:08:54.048Z,40.42
2023-01-09T06:11:23.421Z,32.28
2023-01-09T06:13:51.373Z,29.90
2023-01-09T06:16:19.526Z,34.42
2023-01-09T06:18:47.555Z,45.88
2023-01-09T06:21:15.539Z,48.42
2023-01-09T06:23:43.423Z,38.08
2023-01-09T06:26:11.474Z,33.05
2023-01-09T06:28:40.820Z,35.17
2023-01-09T06:31:08.843Z,33.47
2023-01-09T06:33:36.781Z,46.67
2023-01-09T06:36:05.224Z,35.67
2023-01-09T06:38:33.199Z,33.17
2023-01-09T06:41:01.123Z,29.83
2023-01-09T06:43:29.086Z,32.20
2023-01-09T06:45:58.405Z,32.70
2023-01-09T06:48:26.512Z,30.73
2023-01-09T06:50:55.125Z,32.08
2023-01-09T06:53:23.055Z,29.77
2023-01-09T06:55:51.095Z,31.55
2023-01-09T06:58:19.427Z,55.00
2023-01-09T07:00:49.370Z,39.40
2023-01-09T07:03:19.941Z,30.02
2023-01-09T07:05:48.211Z,31.88
2023-01-09T07:08:16.642Z,33.75
2023-01-09T07:10:44.711Z,36.25
2023-01-09T07:13:12.856Z,44.03
2023-01-09T07:15:40.893Z,48.88
2023-01-09T07:18:08.945Z,38.88
2023-01-09T07:20:40.889Z,37.58
2023-01-09T07:23:09.231Z,51.38
2023-01-09T07:25:37.379Z,45.08
2023-01-09T07:28:05.699Z,47.13
2023-01-09T07:30:33.906Z,53.85
2023-01-09T07:33:03.912Z,62.00
2023-01-09T07:35:32.109Z,49.20
2023-01-09T07:38:01.492Z,42.03
2023-01-09T07:40:29.577Z,45.85
2023-01-09T07:42:57.640Z,42.78
2023-01-09T07:45:25.572Z,60.42
2023-01-09T07:47:53.491Z,53.97
2023-01-09T07:50:21.923Z,35.50
2023-01-09T07:52:49.870Z,36.88
2023-01-09T07:55:19.295Z,45.38
2023-01-09T07:57:50.189Z,42.58
2023-01-09T08:00:21.087Z,44.25
2023-01-09T08:02:53.144Z,54.92
2023-01-09T08:05:21.660Z,37.97
2023-01-09T08:07:50.629Z,36.83
2023-01-09T08:10:20.779Z,37.03
2023-01-09T08:12:49.288Z,33.88
2023-01-09T08:15:17.583Z,27.42
2023-01-09T08:17:46.891Z,33.70
2023-01-09T08:20:16.970Z,36.22
2023-01-09T08:22:49.627Z,38.83
2023-01-09T08:25:19.797Z,35.58
2023-01-09T08:27:48.191Z,40.15
2023-01-09T08:30:17.257Z,25.02
2023-01-09T08:32:49.448Z,26.45
2023-01-09T08:35:17.553Z,26.70
2023-01-09T08:37:46.148Z,24.88
2023-01-09T08:40:14.662Z,27.58
2023-01-09T08:43:01.456Z,28.52
2023-01-09T08:45:46.732Z,32.00
2023-01-09T08:50:43.590Z,34.92
2023-01-09T08:53:12.815Z,35.60
2023-01-09T08:55:40.819Z,40.08
2023-01-09T08:58:10.206Z,32.72
2023-01-09T09:00:38.088Z,39.42
2023-01-09T09:03:06.331Z,33.15
2023-01-09T09:05:34.662Z,26.60
2023-01-09T09:08:03.616Z,27.17
2023-01-09T09:10:32.004Z,27.08
2023-01-09T09:13:00.877Z,26.33
2023-01-09T09:15:30.498Z,37.88
2023-01-09T09:18:00.753Z,32.17
2023-01-09T09:20:31.835Z,32.55
2023-01-09T09:23:00.024Z,32.13
2023-01-09T09:25:28.917Z,30.52
2023-01-09T09:27:57.129Z,29.30
2023-01-09T09:30:25.772Z,32.92
2023-01-09T09:32:55.072Z,28.10
2023-01-09T09:35:23.362Z,28.60
2023-01-09T09:37:55.538Z,34.83
2023-01-09T09:40:36.559Z,32.30
2023-01-09T09:43:57.280Z,28.02
2023-01-09T09:46:35.737Z,28.30
2023-01-09T09:49:11.618Z,26.67
2023-01-09T09:51:58.296Z,28.35
2023-01-09T09:54:32.765Z,26.80
2023-01-09T09:57:03.955Z,26.05
2023-01-09T09:59:36.930Z,25.20
2023-01-09T10:02:15.508Z,26.05
2023-01-09T10:04:52.985Z,25.90
2023-01-09T10:07:25.144Z,29.55
2023-01-09T10:09:57.551Z,29.13
2023-01-09T10:12:31.233Z,32.67
2023-01-09T10:15:02.044Z,31.98
2023-01-09T10:17:48.724Z,31.65
2023-01-09T10:20:41.663Z,48.38
2023-01-09T10:23:23.015Z,38.20
2023-01-09T10:25:57.795Z,37.92
2023-01-09T10:28:50.217Z,40.65
2023-01-09T10:31:27.986Z,38.20
2023-01-09T10:34:10.189Z,37.35
2023-01-09T10:36:56.331Z,36.47
2023-01-09T10:39:28.652Z,38.42
2023-01-09T10:42:03.179Z,40.03
2023-01-09T10:44:37.473Z,38.65
2023-01-09T10:47:12.434Z,27.73
2023-01-09T10:52:18.214Z,25.80
2023-01-09T10:54:53.769Z,27.67
2023-01-09T10:57:38.397Z,28.20
2023-01-09T11:00:08.714Z,31.25
2023-01-09T11:02:37.154Z,31.33
2023-01-09T11:05:05.304Z,37.95
2023-01-09T11:07:38.838Z,37.67
2023-01-09T11:10:09.806Z,37.42
2023-01-09T11:12:38.054Z,37.42
2023-01-09T11:15:31.344Z,34.60
2023-01-09T11:18:18.858Z,37.80
2023-01-09T11:20:47.171Z,37.67
2023-01-09T11:23:31.726Z,33.92
2023-01-09T11:26:02.781Z,39.37
2023-01-09T11:28:31.289Z,36.03
2023-01-09T11:31:01.692Z,37.95
2023-01-09T11:33:32.202Z,37.78
2023-01-09T11:36:08.106Z,37.88
2023-01-09T11:38:50.538Z,39.03
2023-01-09T11:41:21.171Z,37.40
2023-01-09T11:43:51.956Z,32.25
2023-01-09T11:46:38.658Z,28.00
2023-01-09T11:49:22.620Z,29.00
2023-01-09T11:52:12.993Z,28.38
2023-01-09T11:54:46.391Z,26.83
2023-01-09T11:57:14.502Z,27.92
2023-01-09T11:59:42.595Z,27.83
2023-01-09T12:02:39.368Z,27.92
2023-01-09T12:05:21.325Z,42.70
2023-01-09T12:08:11.253Z,31.25
2023-01-09T12:10:56.250Z,31.58
2023-01-09T12:13:41.227Z,30.00
2023-01-09T12:16:16.217Z,27.27
2023-01-09T12:21:41.399Z,24.98
2023-01-09T12:24:26.249Z,25.88
2023-01-09T12:27:10.659Z,25.25
2023-01-09T12:29:58.278Z,26.37
2023-01-09T12:32:41.315Z,24.08
2023-01-09T12:35:22.846Z,20.25
2023-01-09T12:38:15.275Z,21.88
2023-01-09T12:41:22.900Z,22.10
2023-01-09T12:44:09.951Z,22.20
2023-01-09T12:46:47.294Z,21.98
2023-01-09T12:49:29.057Z,23.88
2023-01-09T12:52:06.463Z,24.85
2023-01-09T12:54:42.244Z,27.42
2023-01-09T12:57:17.153Z,26.20
2023-01-09T12:59:52.632Z,25.92
2023-01-09T13:02:27.908Z,25.77
2023-01-09T13:05:01.691Z,24.75
2023-01-09T13:07:35.184Z,25.23
2023-01-09T13:10:10.183Z,25.85
2023-01-09T13:15:28.905Z,29.05
2023-01-09T13:18:03.343Z,23.75
2023-01-09T13:20:38.922Z,23.48
2023-01-09T13:23:08.079Z,23.52
2023-01-09T13:25:44.762Z,23.48
2023-01-09T13:28:21.044Z,23.00
2023-01-09T13:31:03.550Z,24.10
2023-01-09T13:33:36.423Z,21.88
2023-01-09T13:36:05.843Z,22.52
2023-01-09T13:38:36.588Z,23.30
2023-01-09T13:41:30.399Z,22.50
2023-01-09T13:44:01.096Z,23.40
2023-01-09T13:46:38.415Z,25.08
2023-01-09T13:49:08.953Z,24.98
2023-01-09T13:51:56.814Z,25.27
2023-01-09T13:55:01.948Z,25.92
2023-01-09T13:57:32.150Z,25.85
2023-01-09T14:00:20.822Z,34.95
2023-01-09T14:02:57.562Z,49.33
2023-01-09T14:06:12.003Z,65.25
2023-01-09T14:08:45.008Z,51.85
2023-01-09T14:11:21.850Z,51.88
2023-01-09T14:14:03.657Z,45.60
2023-01-09T14:16:32.940Z,41.45
2023-01-09T14:19:08.061Z,35.70
2023-01-09T14:21:48.256Z,42.78
2023-01-09T14:24:26.559Z,59.03
2023-01-09T14:26:57.260Z,58.33
2023-01-09T14:29:47.512Z,59.85
2023-01-09T14:32:47.270Z,58.03
2023-01-09T14:35:26.489Z,52.35
2023-01-09T14:38:17.678Z,44.42
2023-01-09T14:40:50.125Z,87.18
2023-01-09T14:43:25.806Z,55.88
2023-01-09T14:45:57.864Z,51.13
2023-01-09T14:48:27.702Z,41.63
2023-01-09T14:51:00.028Z,48.05
2023-01-09T14:53:32.581Z,40.47
2023-01-09T14:56:06.023Z,38.60
2023-01-09T14:58:34.944Z,39.22
2023-01-09T15:01:05.408Z,41.13
2023-01-09T15:03:39.364Z,46.15
2023-01-09T15:06:14.697Z,45.17
2023-01-09T15:08:46.818Z,41.45
2023-01-09T15:11:15.694Z,39.28
2023-01-09T15:13:47.925Z,46.03
2023-01-09T15:16:19.849Z,49.63
2023-01-09T15:18:52.333Z,42.72
2023-01-09T15:21:25.651Z,40.17
2023-01-09T15:23:54.217Z,41.72
2023-01-09T15:26:27.777Z,41.08
2023-01-09T15:29:02.437Z,62.13
2023-01-09T15:31:30.869Z,61.72
2023-01-09T15:33:58.903Z,58.80
2023-01-09T15:36:31.005Z,100.13
2023-01-09T15:39:00.474Z,70.75
2023-01-09T15:41:47.826Z,62.78
2023-01-09T15:44:20.465Z,79.10
2023-01-09T15:46:50.957Z,71.05
2023-01-09T15:49:20.258Z,69.90
2023-01-09T15:51:51.525Z,61.53
2023-01-09T15:54:28.572Z,59.25
2023-01-09T15:56:56.481Z,60.25
2023-01-09T15:59:27.283Z,71.25
2023-01-09T16:02:16.011Z,67.75
2023-01-09T16:04:44.098Z,66.90
2023-01-09T16:07:16.956Z,62.38
2023-01-09T16:09:47.507Z,70.32
2023-01-09T16:12:21.150Z,74.25
2023-01-09T16:14:53.674Z,79.22
2023-01-09T16:17:26.572Z,76.28
2023-01-09T16:19:57.901Z,63.85
2023-01-09T16:22:29.167Z,58.63
2023-01-09T16:24:58.894Z,93.63
2023-01-09T16:27:28.780Z,76.65
2023-01-09T16:29:59.496Z,123.15
2023-01-09T16:32:30.145Z,87.80
2023-01-09T16:34:59.930Z,72.38
2023-01-09T16:37:30.036Z,63.92
2023-01-09T16:40:36.280Z,61.97
2023-01-09T16:43:05.426Z,64.90
2023-01-09T16:45:35.539Z,55.85
2023-01-09T16:48:04.769Z,60.17
2023-01-09T16:50:32.758Z,66.55
2023-01-09T16:53:08.313Z,68.25
2023-01-09T16:55:36.379Z,63.92
2023-01-09T16:58:04.405Z,69.30
2023-01-09T17:00:32.344Z,80.57
2023-01-09T17:03:00.818Z,104.28
2023-01-09T17:05:28.787Z,77.53
2023-01-09T17:07:57.137Z,107.60
2023-01-09T17:10:26.533Z,90.82
2023-01-09T17:12:54.482Z,67.60
2023-01-09T17:15:22.545Z,58.47
2023-01-09T17:17:50.477Z,67.97
2023-01-09T17:20:19.297Z,59.60
2023-01-09T17:22:47.299Z,77.55
2023-01-09T17:25:33.852Z,70.25
2023-01-09T17:28:21.875Z,58.72
2023-01-09T17:30:49.990Z,66.65
2023-01-09T17:33:19.851Z,61.22
2023-01-09T17:35:48.121Z,74.93
2023-01-09T17:38:16.467Z,68.32
2023-01-09T17:40:45.465Z,69.72
2023-01-09T17:43:14.884Z,57.83
2023-01-09T17:45:43.227Z,58.30
2023-01-09T17:48:22.204Z,57.97
2023-01-09T17:50:50.390Z,55.40
2023-01-09T17:53:20.732Z,50.75
2023-01-09T17:55:48.767Z,57.58
2023-01-09T17:58:27.151Z,55.38
2023-01-09T18:00:55.155Z,60.30
2023-01-09T18:03:26.119Z,60.97
2023-01-09T18:05:54.518Z,55.67
2023-01-09T18:08:24.016Z,53.85
2023-01-09T18:10:51.983Z,65.47
2023-01-09T18:13:20.478Z,74.80
2023-01-09T18:15:52.499Z,74.82
2023-01-09T18:18:22.503Z,62.35
2023-01-09T18:20:51.301Z,68.43
2023-01-09T18:23:19.715Z,65.32
2023-01-09T18:25:48.435Z,58.75
2023-01-09T18:28:17.082Z,57.58
2023-01-09T18:30:47.518Z,51.55
2023-01-09T18:33:17.709Z,50.67
2023-01-09T18:35:46.676Z,53.80
2023-01-09T18:38:15.587Z,69.57
2023-01-09T18:40:43.541Z,59.65
2023-01-09T18:43:12.194Z,55.72
2023-01-09T18:45:40.453Z,52.83
2023-01-09T18:48:09.629Z,51.50
2023-01-09T18:50:38.981Z,53.25
2023-01-09T18:53:07.457Z,49.92
2023-01-09T18:55:37.579Z,50.88
2023-01-09T18:58:05.958Z,55.28
2023-01-09T19:00:33.995Z,53.95
2023-01-09T19:03:01.867Z,49.78
2023-01-09T19:05:29.888Z,54.88
2023-01-09T19:07:59.241Z,51.58
2023-01-09T19:10:27.274Z,50.45
2023-01-09T19:12:55.251Z,56.88
2023-01-09T19:15:23.293Z,50.75
2023-01-09T19:17:51.817Z,54.95
2023-01-09T19:20:20.211Z,48.92
2023-01-09T19:22:48.255Z,50.60
2023-01-09T19:25:17.754Z,58.28
2023-01-09T19:27:45.648Z,54.03
2023-01-09T19:30:14.670Z,50.65
2023-01-09T19:32:42.662Z,52.67
2023-01-09T19:35:10.745Z,54.90
2023-01-09T19:37:38.791Z,64.32
2023-01-09T19:40:07.848Z,63.25
2023-01-09T19:42:37.427Z,63.10
2023-01-09T19:45:06.444Z,64.10
2023-01-09T19:47:36.191Z,60.45
2023-01-09T19:50:05.227Z,66.60
2023-01-09T19:52:33.291Z,64.97
2023-01-09T19:55:01.453Z,59.03
2023-01-09T19:57:29.453Z,62.28
2023-01-09T19:59:58.859Z,69.43
2023-01-09T20:02:28.206Z,64.28
2023-01-09T20:04:56.344Z,66.60
2023-01-09T20:07:24.382Z,66.18
2023-01-09T20:09:52.245Z,68.72
2023-01-09T20:12:20.253Z,65.30
2023-01-09T20:14:48.265Z,67.90
2023-01-09T20:17:17.953Z,67.97
2023-01-09T20:19:46.286Z,68.13
2023-01-09T20:22:14.420Z,64.63
2023-01-09T20:24:42.396Z,71.57
2023-01-09T20:27:10.291Z,65.10
2023-01-09T20:29:38.299Z,61.15
2023-01-09T20:32:07.735Z,64.55
2023-01-09T20:34:37.471Z,67.90
2023-01-09T20:37:05.412Z,64.18
2023-01-09T20:39:33.409Z,64.18
2023-01-09T20:42:01.507Z,63.10
2023-01-09T20:44:29.504Z,60.78
2023-01-09T20:46:57.702Z,59.72
2023-01-09T20:49:25.744Z,62.70
2023-01-09T20:51:55.225Z,60.25
2023-01-09T20:54:23.922Z,62.63
2023-01-09T20:56:51.901Z,64.13
2023-01-09T20:59:22.198Z,62.92
2023-01-09T21:01:50.621Z,61.20
2023-01-09T21:04:19.120Z,58.25
2023-01-09T21:06:49.631Z,56.13
2023-01-09T21:09:20.291Z,54.97
2023-01-09T21:11:48.226Z,56.28
2023-01-09T21:14:16.173Z,59.85
2023-01-09T21:16:53.522Z,54.22
2023-01-09T21:19:22.577Z,48.58
2023-01-09T21:21:53.076Z,50.20
2023-01-09T21:24:22.784Z,51.63
2023-01-09T21:26:50.795Z,50.45
2023-01-09T21:29:18.744Z,56.20
2023-01-09T21:31:46.815Z,55.28
2023-01-09T21:34:17.492Z,53.40
2023-01-09T21:36:48.696Z,57.90
2023-01-09T21:39:17.473Z,61.00
2023-01-09T21:42:04.302Z,54.58
2023-01-09T21:44:49.373Z,58.65
2023-01-09T21:47:17.341Z,51.00
2023-01-09T21:49:46.024Z,47.47
2023-01-09T21:52:15.034Z,49.95
2023-01-09T21:54:43.199Z,49.50
2023-01-09T21:57:13.011Z,49.75
2023-01-09T21:59:41.145Z,46.83
2023-01-09T22:02:12.449Z,44.88
2023-01-09T22:04:42.824Z,45.55
2023-01-09T22:07:11.289Z,44.78
2023-01-09T22:09:40.162Z,44.70
2023-01-09T22:12:08.569Z,41.00
2023-01-09T22:14:38.956Z,41.92
2023-01-09T22:17:07.535Z,43.00
2023-01-09T22:19:35.547Z,41.53
2023-01-09T22:22:07.274Z,40.47
2023-01-09T22:24:35.319Z,42.20
2023-01-09T22:27:03.260Z,39.63
2023-01-09T22:29:31.319Z,41.08
2023-01-09T22:32:00.710Z,42.20
2023-01-09T22:34:29.017Z,40.25
2023-01-09T22:36:56.943Z,42.05
2023-01-09T22:39:25.472Z,42.00
2023-01-09T22:41:55.260Z,41.25
2023-01-09T22:44:26.194Z,40.38
2023-01-09T22:46:54.128Z,41.80
2023-01-09T22:49:23.639Z,44.50
2023-01-09T22:51:52.135Z,43.80
2023-01-09T22:54:20.998Z,42.90
2023-01-09T22:56:50.604Z,41.13
2023-01-09T22:59:18.547Z,42.80
2023-01-09T23:01:46.552Z,44.10
2023-01-09T23:04:15.957Z,43.53
2023-01-09T23:06:45.384Z,41.80
2023-01-09T23:09:13.439Z,42.95
2023-01-09T23:11:59.226Z,43.42
2023-01-09T23:14:27.232Z,39.17
2023-01-09T23:16:56.083Z,39.90
2023-01-09T23:19:24.150Z,39.90
2023-01-09T23:21:53.504Z,38.80
2023-01-09T23:24:21.483Z,39.00
2023-01-09T23:26:49.941Z,38.10
2023-01-09T23:29:17.906Z,38.65
2023-01-09T23:31:46.366Z,35.13
2023-01-09T23:34:15.904Z,33.45
2023-01-09T23:36:43.921Z,34.53
2023-01-09T23:39:13.499Z,34.42
2023-01-09T23:41:59.476Z,35.30
2023-01-09T23:44:27.482Z,32.60
2023-01-09T23:46:55.723Z,34.60
2023-01-09T23:49:23.729Z,34.92
2023-01-09T23:51:51.668Z,32.38
2023-01-09T23:54:21.055Z,35.97
2023-01-09T23:56:49.062Z,31.73
2023-01-09T23:59:18.107Z,30.33
